Time;durP1;ratioP1;P1;durP2;ratioP2;P2;SDS_P1;SDS_P2;PMS_P1;PMS_P2;Temp;Humidity;BMP_temperature;BMP_pressure;BME280_temperature;BME280_humidity;BME280_pressure;Samples;Min_cycle;Max_cycle;Signal;HPM_P1;HPM_P2
2023/05/23 00:01:07;;;;;;;40.00;15.38;;;;;;;;;;6322910;22;19999;-95
2023/05/23 00:03:34;;;;;;;47.80;13.82;;;;;;;;;;6357112;22;20002;-94
2023/05/23 00:06:01;;;;;;;39.05;13.82;;;;;;;;;;6335516;22;20020;-94
2023/05/23 00:08:27;;;;;;;39.10;13.77;;;;;;;;;;6336007;22;20014;-95
2023/05/23 00:10:53;;;;;;;38.28;13.07;;;;;;;;;;6362235;22;19995;-96
2023/05/23 00:13:19;;;;;;;46.00;12.65;;;;;;;;;;6363027;22;19998;-95
2023/05/23 00:15:52;;;;;;;45.25;12.63;;;;;;;;;;6362638;22;20006;-95
2023/05/23 00:18:23;;;;;;;36.55;11.52;;;;;;;;;;6337645;22;20009;-94
2023/05/23 00:20:50;;;;;;;36.33;12.88;;;;;;;;;;6389253;22;20013;-94
2023/05/23 00:23:19;;;;;;;33.75;12.48;;;;;;;;;;6335396;22;20104;-95
2023/05/23 00:25:59;;;;;;;33.78;13.55;;;;;;;;;;6336007;22;20005;-95
2023/05/23 00:28:25;;;;;;;30.65;13.07;;;;;;;;;;6359425;22;20002;-94
2023/05/23 00:30:57;;;;;;;36.90;12.98;;;;;;;;;;6359606;22;20006;-94
2023/05/23 00:33:33;;;;;;;34.58;12.07;;;;;;;;;;6360089;22;20013;-95
2023/05/23 00:36:06;;;;;;;42.38;13.23;;;;;;;;;;6360789;22;20485;-95
2023/05/23 00:38:32;;;;;;;31.55;13.02;;;;;;;;;;6329735;22;20057;-95
2023/05/23 00:40:58;;;;;;;35.72;13.77;;;;;;;;;;6356201;22;20010;-95
2023/05/23 00:43:25;;;;;;;33.10;14.05;;;;;;;;;;6330036;22;20006;-94
2023/05/23 00:45:51;;;;;;;31.77;13.73;;;;;;;;;;6328056;22;20025;-92
2023/05/23 00:48:18;;;;;;;39.28;13.52;;;;;;;;;;6326886;22;20010;-94
2023/05/23 00:51:06;;;;;;;33.17;14.23;;;;;;;;;;6352318;22;20055;-95
2023/05/23 00:53:32;;;;;;;24.40;13.23;;;;;;;;;;6358709;22;20054;-92
2023/05/23 00:55:58;;;;;;;42.67;14.13;;;;;;;;;;6355146;22;20052;-95
2023/05/23 00:58:24;;;;;;;29.08;11.75;;;;;;;;;;6352204;22;19999;-95
2023/05/23 01:00:53;;;;;;;27.77;12.20;;;;;;;;;;6353091;22;20141;-94
2023/05/23 01:03:22;;;;;;;39.63;12.60;;;;;;;;;;6330538;22;20363;-93
2023/05/23 01:05:56;;;;;;;27.40;10.60;;;;;;;;;;6324186;22;20337;-94
2023/05/23 01:08:23;;;;;;;27.92;9.18;;;;;;;;;;6324612;22;20007;-93
2023/05/23 01:10:49;;;;;;;32.95;10.00;;;;;;;;;;6327094;22;20006;-95
2023/05/23 01:13:20;;;;;;;22.77;9.45;;;;;;;;;;6352325;22;20076;-93
2023/05/23 01:16:05;;;;;;;25.40;9.35;;;;;;;;;;6354102;22;20006;-93
2023/05/23 01:18:40;;;;;;;18.85;8.05;;;;;;;;;;6351879;22;20003;-94
2023/05/23 01:21:09;;;;;;;15.93;8.07;;;;;;;;;;6355332;22;20060;-96
2023/05/23 01:23:54;;;;;;;18.42;7.50;;;;;;;;;;6354680;22;20017;-95
2023/05/23 01:26:31;;;;;;;18.03;6.97;;;;;;;;;;6350979;22;20006;-94
2023/05/23 01:29:17;;;;;;;17.65;7.15;;;;;;;;;;6354195;22;20002;-94
2023/05/23 01:31:45;;;;;;;23.25;7.38;;;;;;;;;;6352625;22;20505;-95
2023/05/23 01:34:18;;;;;;;19.83;8.00;;;;;;;;;;6352881;22;20016;-93
2023/05/23 01:36:45;;;;;;;16.88;6.85;;;;;;;;;;6354462;22;20014;-94
2023/05/23 01:39:18;;;;;;;28.10;8.65;;;;;;;;;;6382990;22;20006;-92
2023/05/23 01:41:45;;;;;;;26.77;7.25;;;;;;;;;;6326813;22;20021;-93
2023/05/23 01:44:12;;;;;;;30.65;8.77;;;;;;;;;;6353271;22;20081;-92
2023/05/23 01:46:52;;;;;;;28.35;8.43;;;;;;;;;;6326256;22;20010;-94
2023/05/23 01:49:18;;;;;;;27.15;9.60;;;;;;;;;;6355919;22;20010;-94
2023/05/23 01:51:46;;;;;;;22.83;8.15;;;;;;;;;;6352569;22;20298;-93
2023/05/23 01:54:18;;;;;;;32.78;8.52;;;;;;;;;;6356733;22;20006;-95
2023/05/23 01:56:48;;;;;;;34.85;9.10;;;;;;;;;;6383100;22;20028;-94
2023/05/23 01:59:14;;;;;;;30.25;8.70;;;;;;;;;;6355475;22;20007;-93
2023/05/23 02:01:43;;;;;;;37.38;9.35;;;;;;;;;;6329003;22;20085;-92
2023/05/23 02:04:10;;;;;;;29.38;8.88;;;;;;;;;;6357064;22;20059;-93
2023/05/23 02:06:36;;;;;;;32.72;8.93;;;;;;;;;;6335579;22;20006;-94
2023/05/23 02:09:03;;;;;;;36.10;8.52;;;;;;;;;;6362155;22;19998;-94
2023/05/23 02:11:40;;;;;;;31.40;8.52;;;;;;;;;;6361109;22;19982;-94
2023/05/23 02:14:07;;;;;;;28.75;9.20;;;;;;;;;;6360451;22;20022;-94
2023/05/23 02:16:35;;;;;;;30.02;7.78;;;;;;;;;;6356551;22;20006;-94
2023/05/23 02:19:02;;;;;;;25.08;7.80;;;;;;;;;;6331748;22;20010;-94
2023/05/23 02:21:31;;;;;;;29.45;7.93;;;;;;;;;;6329135;22;19999;-94
2023/05/23 02:23:57;;;;;;;32.47;8.65;;;;;;;;;;6329278;22;20013;-93
2023/05/23 02:26:32;;;;;;;24.98;7.38;;;;;;;;;;6325858;22;20007;-93
2023/05/23 02:28:58;;;;;;;24.27;7.20;;;;;;;;;;6351291;22;20002;-95
2023/05/23 02:31:24;;;;;;;18.80;6.53;;;;;;;;;;6326050;22;20017;-93
2023/05/23 02:33:50;;;;;;;32.88;7.25;;;;;;;;;;6324129;22;20014;-93
2023/05/23 02:36:17;;;;;;;22.75;5.78;;;;;;;;;;6324558;22;20022;-96
2023/05/23 02:38:58;;;;;;;23.27;6.00;;;;;;;;;;6350288;22;20022;-96
2023/05/23 02:41:24;;;;;;;17.63;5.85;;;;;;;;;;6322913;22;20007;-95
2023/05/23 02:43:51;;;;;;;28.05;7.45;;;;;;;;;;6321239;22;20090;-93
2023/05/23 02:46:17;;;;;;;24.20;7.45;;;;;;;;;;6318480;22;20010;-93
2023/05/23 02:48:44;;;;;;;30.40;7.57;;;;;;;;;;6317906;22;20478;-93
2023/05/23 02:51:14;;;;;;;36.88;6.93;;;;;;;;;;6318852;22;20353;-95
2023/05/23 02:53:43;;;;;;;29.30;7.32;;;;;;;;;;6318449;22;20511;-93
2023/05/23 02:56:10;;;;;;;32.83;7.75;;;;;;;;;;6344059;22;20018;-93
2023/05/23 02:58:36;;;;;;;26.50;6.82;;;;;;;;;;6344597;22;20017;-93
2023/05/23 03:01:03;;;;;;;28.65;7.22;;;;;;;;;;6316546;22;20220;-94
2023/05/23 03:03:30;;;;;;;35.30;8.20;;;;;;;;;;6344650;22;20002;-93
2023/05/23 03:06:00;;;;;;;31.60;8.95;;;;;;;;;;6344631;22;20491;-95
2023/05/23 03:08:29;;;;;;;42.67;9.10;;;;;;;;;;6318492;22;20356;-94
2023/05/23 03:10:55;;;;;;;35.65;8.98;;;;;;;;;;6318396;22;20145;-94
2023/05/23 03:13:21;;;;;;;44.67;8.77;;;;;;;;;;6321129;22;20093;-94
2023/05/23 03:15:57;;;;;;;27.42;8.15;;;;;;;;;;6345911;22;20002;-94
2023/05/23 03:18:24;;;;;;;36.80;8.57;;;;;;;;;;6345809;22;20013;-93
2023/05/23 03:20:50;;;;;;;34.55;7.60;;;;;;;;;;6345615;22;20026;-93
2023/05/23 03:23:19;;;;;;;21.45;7.30;;;;;;;;;;6345288;22;20083;-94
2023/05/23 03:25:45;;;;;;;35.65;8.38;;;;;;;;;;6343790;22;19998;-94
2023/05/23 03:28:19;;;;;;;21.98;6.32;;;;;;;;;;6345963;22;20028;-95
2023/05/23 03:30:51;;;;;;;40.83;9.00;;;;;;;;;;6320202;22;20503;-95
2023/05/23 03:33:27;;;;;;;28.90;7.57;;;;;;;;;;6319930;22;20006;-94
2023/05/23 03:36:01;;;;;;;20.27;6.45;;;;;;;;;;6344620;22;20021;-93
2023/05/23 03:38:36;;;;;;;21.35;6.47;;;;;;;;;;6314719;22;20011;-91
2023/05/23 03:41:03;;;;;;;19.55;6.05;;;;;;;;;;6315247;22;20062;-95
2023/05/23 03:43:31;;;;;;;23.60;6.63;;;;;;;;;;6316156;22;20280;-95
2023/05/23 03:45:58;;;;;;;25.73;5.90;;;;;;;;;;6315137;22;20014;-95
2023/05/23 03:48:29;;;;;;;27.90;6.63;;;;;;;;;;6316153;22;20010;-94
2023/05/23 03:50:55;;;;;;;26.65;6.78;;;;;;;;;;6340932;22;20010;-94
2023/05/23 03:53:21;;;;;;;13.07;4.65;;;;;;;;;;6315040;22;20014;-95
2023/05/23 03:55:47;;;;;;;24.45;5.93;;;;;;;;;;6315934;22;20014;-94
2023/05/23 03:58:13;;;;;;;27.30;7.05;;;;;;;;;;6315177;22;20002;-94
2023/05/23 04:00:40;;;;;;;19.70;6.00;;;;;;;;;;6339917;22;20538;-96
2023/05/23 04:03:13;;;;;;;25.00;5.95;;;;;;;;;;6339991;22;19998;-95
2023/05/23 04:05:39;;;;;;;22.60;5.88;;;;;;;;;;6340850;22;20002;-94
2023/05/23 04:08:07;;;;;;;31.80;6.95;;;;;;;;;;6340179;22;20039;-95
2023/05/23 04:10:33;;;;;;;26.00;5.70;;;;;;;;;;6314530;22;20450;-93
2023/05/23 04:12:59;;;;;;;29.15;6.65;;;;;;;;;;6314482;22;20006;-94
2023/05/23 04:15:26;;;;;;;26.17;6.53;;;;;;;;;;6314452;22;20007;-93
2023/05/23 04:17:56;;;;;;;26.55;6.18;;;;;;;;;;6314938;22;20488;-96
2023/05/23 04:20:23;;;;;;;18.85;5.85;;;;;;;;;;6339850;22;20519;-95
2023/05/23 04:22:49;;;;;;;25.35;6.07;;;;;;;;;;6314069;22;20031;-94
2023/05/23 04:25:17;;;;;;;32.10;5.75;;;;;;;;;;6314904;22;20013;-94
2023/05/23 04:27:44;;;;;;;22.50;4.60;;;;;;;;;;6340694;22;20006;-95
2023/05/23 04:30:10;;;;;;;29.30;5.15;;;;;;;;;;6314334;22;20026;-94
2023/05/23 04:32:37;;;;;;;22.02;4.50;;;;;;;;;;6315622;22;20431;-94
2023/05/23 04:35:03;;;;;;;26.52;4.75;;;;;;;;;;6339795;22;20033;-94
2023/05/23 04:37:34;;;;;;;20.85;5.25;;;;;;;;;;6341610;22;20496;-95
2023/05/23 04:42:47;;;;;;;18.95;4.47;;;;;;;;;;6348779;22;20034;-93
2023/05/23 04:45:13;;;;;;;24.63;4.75;;;;;;;;;;6315165;22;20025;-95
2023/05/23 04:47:40;;;;;;;19.42;4.43;;;;;;;;;;6340890;22;20010;-94
2023/05/23 04:50:30;;;;;;;20.85;5.50;;;;;;;;;;6315415;22;20011;-94
2023/05/23 04:52:59;;;;;;;25.33;5.60;;;;;;;;;;6340694;22;20002;-95
2023/05/23 04:55:25;;;;;;;24.63;6.00;;;;;;;;;;6338219;22;20033;-95
2023/05/23 04:57:52;;;;;;;24.20;6.45;;;;;;;;;;6314403;22;20092;-95
2023/05/23 05:00:24;;;;;;;27.63;7.15;;;;;;;;;;6314340;22;20014;-94
2023/05/23 05:02:50;;;;;;;29.20;7.68;;;;;;;;;;6339474;22;20054;-94
2023/05/23 05:05:17;;;;;;;37.50;7.88;;;;;;;;;;6320060;22;20439;-95
2023/05/23 05:07:46;;;;;;;28.98;7.25;;;;;;;;;;6342693;22;20006;-94
2023/05/23 05:10:15;;;;;;;26.40;6.93;;;;;;;;;;6318330;22;20033;-94
2023/05/23 05:12:51;;;;;;;23.17;6.50;;;;;;;;;;6340723;22;20098;-96
2023/05/23 05:15:18;;;;;;;;;;;;;;;;;;6340785;22;20013;-95
2023/05/23 05:17:45;;;;;;;29.38;6.85;;;;;;;;;;6339402;22;20417;-93
2023/05/23 05:20:11;;;;;;;27.23;7.75;;;;;;;;;;6339788;22;20003;-96
2023/05/23 05:22:39;;;;;;;21.52;6.20;;;;;;;;;;6312536;22;20070;-96
2023/05/23 05:25:08;;;;;;;19.45;6.35;;;;;;;;;;6339684;22;20006;-94
2023/05/23 05:27:36;;;;;;;22.38;6.18;;;;;;;;;;6339542;22;20017;-95
2023/05/23 05:30:05;;;;;;;26.88;6.55;;;;;;;;;;6313496;22;20014;-95
2023/05/23 05:32:32;;;;;;;24.25;6.47;;;;;;;;;;6339834;22;20014;-95
2023/05/23 05:35:34;;;;;;;21.38;6.90;;;;;;;;;;6319669;22;20025;-96
2023/05/23 05:38:10;;;;;;;20.40;6.47;;;;;;;;;;6259359;22;20440;-93
2023/05/23 05:40:45;;;;;;;27.23;6.15;;;;;;;;;;6308736;22;20044;-92
2023/05/23 05:43:11;;;;;;;27.02;6.53;;;;;;;;;;6308002;22;20015;-95
2023/05/23 05:45:44;;;;;;;18.83;5.45;;;;;;;;;;6309389;22;20466;-95
2023/05/23 05:48:11;;;;;;;22.70;5.68;;;;;;;;;;6311699;22;20029;-94
2023/05/23 05:50:37;;;;;;;26.63;5.50;;;;;;;;;;6308885;22;20060;-94
2023/05/23 05:53:07;;;;;;;19.45;5.40;;;;;;;;;;6308933;22;20002;-94
2023/05/23 05:55:43;;;;;;;;;;;;;;;;;;;;;
2023/05/23 05:58:15;;;;;;;11.45;4.18;;;;;;;;;;6339392;22;20088;-95
2023/05/23 06:00:42;;;;;;;21.13;4.43;;;;;;;;;;6310326;22;20011;-95
2023/05/23 06:03:08;;;;;;;36.40;4.93;;;;;;;;;;6309909;22;20515;-94
2023/05/23 06:05:36;;;;;;;11.00;3.35;;;;;;;;;;6308899;22;20006;-96
2023/05/23 06:08:02;;;;;;;16.25;4.25;;;;;;;;;;6309727;22;20014;-94
2023/05/23 06:10:32;;;;;;;18.85;4.13;;;;;;;;;;6310036;22;20205;-94
2023/05/23 06:13:00;;;;;;;11.55;3.40;;;;;;;;;;6311162;22;20006;-95
2023/05/23 06:15:26;;;;;;;16.27;3.95;;;;;;;;;;6310966;22;20007;-95
2023/05/23 06:17:52;;;;;;;12.32;4.30;;;;;;;;;;6312028;22;20010;-95
2023/05/23 06:20:28;;;;;;;;;;;;;;;;;;;;;
2023/05/23 06:22:55;;;;;;;17.95;4.50;;;;;;;;;;6342320;22;20026;-94
2023/05/23 06:25:24;;;;;;;17.30;3.80;;;;;;;;;;6329512;22;20070;-95
2023/05/23 06:27:50;;;;;;;19.67;3.92;;;;;;;;;;6332762;22;19999;-93
2023/05/23 06:30:23;;;;;;;17.88;4.15;;;;;;;;;;6329770;22;20042;-93
2023/05/23 06:32:49;;;;;;;10.95;3.88;;;;;;;;;;6329791;22;20074;-94
2023/05/23 06:35:18;;;;;;;14.80;4.15;;;;;;;;;;6329945;22;19999;-93
2023/05/23 06:37:48;;;;;;;22.10;4.00;;;;;;;;;;6351900;22;20078;-94
2023/05/23 06:40:14;;;;;;;23.55;4.03;;;;;;;;;;6349883;22;20026;-96
2023/05/23 06:42:40;;;;;;;17.17;3.75;;;;;;;;;;6349268;22;20016;-95
2023/05/23 06:45:10;;;;;;;19.48;4.63;;;;;;;;;;6319396;22;20007;-93
2023/05/23 06:47:36;;;;;;;27.38;5.20;;;;;;;;;;6319798;22;20444;-94
2023/05/23 06:50:03;;;;;;;23.55;4.35;;;;;;;;;;6345863;22;20006;-94
2023/05/23 06:52:29;;;;;;;23.13;4.20;;;;;;;;;;6344200;22;20122;-93
2023/05/23 06:54:56;;;;;;;19.20;4.68;;;;;;;;;;6318650;22;20013;-93
2023/05/23 06:57:22;;;;;;;18.83;4.05;;;;;;;;;;6316343;22;20343;-93
2023/05/23 06:59:51;;;;;;;37.35;6.95;;;;;;;;;;6342679;22;20062;-93
2023/05/23 07:02:17;;;;;;;17.92;4.03;;;;;;;;;;6313776;22;20376;-93
2023/05/23 07:04:46;;;;;;;23.40;4.57;;;;;;;;;;6342040;22;20386;-93
2023/05/23 07:07:12;;;;;;;16.17;4.60;;;;;;;;;;6314855;22;20021;-93
2023/05/23 07:09:38;;;;;;;21.65;3.53;;;;;;;;;;6340872;22;20089;-93
2023/05/23 07:12:05;;;;;;;12.82;3.75;;;;;;;;;;6340494;22;20111;-93
2023/05/23 07:14:34;;;;;;;15.82;3.15;;;;;;;;;;6340702;22;20299;-93
2023/05/23 07:17:00;;;;;;;17.95;3.28;;;;;;;;;;6314232;22;20394;-93
2023/05/23 07:19:27;;;;;;;28.00;3.95;;;;;;;;;;6340533;22;20309;-92
2023/05/23 07:21:59;;;;;;;19.90;3.58;;;;;;;;;;6315167;22;19999;-92
2023/05/23 07:24:25;;;;;;;19.15;3.97;;;;;;;;;;6340174;22;20030;-94
2023/05/23 07:26:51;;;;;;;14.43;3.85;;;;;;;;;;6315260;22;20010;-94
2023/05/23 07:29:19;;;;;;;28.50;3.78;;;;;;;;;;6315668;22;20021;-93
2023/05/23 07:31:52;;;;;;;22.55;4.15;;;;;;;;;;6341524;22;20089;-94
2023/05/23 07:34:18;;;;;;;16.88;3.75;;;;;;;;;;6315553;22;20520;-94
2023/05/23 07:36:46;;;;;;;21.95;3.85;;;;;;;;;;6316731;22;20383;-93
2023/05/23 07:39:14;;;;;;;18.35;3.60;;;;;;;;;;6313343;22;20026;-93
2023/05/23 07:41:41;;;;;;;25.20;3.40;;;;;;;;;;6367559;22;20002;-94
2023/05/23 07:44:08;;;;;;;19.17;4.47;;;;;;;;;;6314802;22;20007;-93
2023/05/23 07:46:35;;;;;;;15.38;4.05;;;;;;;;;;6314677;22;20009;-94
2023/05/23 07:49:01;;;;;;;29.92;3.97;;;;;;;;;;6315279;22;20069;-93
2023/05/23 07:51:27;;;;;;;22.67;4.40;;;;;;;;;;6315158;22;20006;-94
2023/05/23 07:53:58;;;;;;;19.75;4.00;;;;;;;;;;6314958;22;20519;-93
2023/05/23 07:56:25;;;;;;;14.77;4.03;;;;;;;;;;6340681;22;20014;-92
2023/05/23 07:58:58;;;;;;;15.32;3.10;;;;;;;;;;6313635;22;20043;-93
2023/05/23 08:01:24;;;;;;;22.27;3.90;;;;;;;;;;6338323;22;20010;-93
2023/05/23 08:03:51;;;;;;;18.60;3.53;;;;;;;;;;6339035;22;20067;-93
2023/05/23 08:06:24;;;;;;;17.92;3.30;;;;;;;;;;6313896;22;20035;-93
2023/05/23 08:08:50;;;;;;;20.70;5.10;;;;;;;;;;6316839;22;20506;-93
2023/05/23 08:11:17;;;;;;;18.98;3.65;;;;;;;;;;6340191;22;20533;-93
2023/05/23 08:13:43;;;;;;;17.70;5.00;;;;;;;;;;6339471;22;20027;-93
2023/05/23 08:16:12;;;;;;;13.40;2.75;;;;;;;;;;6338915;22;20045;-93
2023/05/23 08:18:41;;;;;;;16.52;3.97;;;;;;;;;;6313603;22;20352;-93
2023/05/23 08:21:07;;;;;;;20.85;3.72;;;;;;;;;;6314227;22;20006;-93
2023/05/23 08:23:36;;;;;;;16.45;3.40;;;;;;;;;;6313227;22;20014;-94
2023/05/23 08:26:02;;;;;;;16.10;3.22;;;;;;;;;;6313436;22;20009;-92
2023/05/23 08:28:33;;;;;;;14.70;3.50;;;;;;;;;;6312196;22;20007;-94
2023/05/23 08:30:59;;;;;;;23.08;4.50;;;;;;;;;;6314443;22;20335;-93
2023/05/23 08:33:28;;;;;;;17.73;4.10;;;;;;;;;;6337970;22;20439;-93
2023/05/23 08:35:57;;;;;;;24.23;5.60;;;;;;;;;;6313651;22;20385;-93
2023/05/23 08:38:25;;;;;;;13.13;3.53;;;;;;;;;;6313400;22;20026;-92
2023/05/23 08:40:55;;;;;;;24.60;4.47;;;;;;;;;;6339651;22;20002;-92
2023/05/23 08:43:21;;;;;;;13.40;3.58;;;;;;;;;;6314252;22;20006;-92
2023/05/23 08:45:48;;;;;;;17.83;3.55;;;;;;;;;;6339425;22;19998;-94
2023/05/23 08:48:16;;;;;;;18.77;3.83;;;;;;;;;;6337935;22;20009;-94
2023/05/23 08:50:46;;;;;;;29.63;4.03;;;;;;;;;;6339329;22;20006;-95
2023/05/23 08:53:19;;;;;;;20.67;3.85;;;;;;;;;;6316483;22;20014;-95
2023/05/23 08:55:53;;;;;;;17.25;4.03;;;;;;;;;;6339832;22;20021;-94
2023/05/23 08:58:19;;;;;;;10.98;3.17;;;;;;;;;;6341556;22;20007;-94
2023/05/23 09:00:47;;;;;;;19.40;4.03;;;;;;;;;;6315810;22;20006;-94
2023/05/23 09:03:14;;;;;;;16.33;3.83;;;;;;;;;;6338396;22;20077;-94
2023/05/23 09:05:41;;;;;;;19.05;5.32;;;;;;;;;;6340089;22;20026;-95
2023/05/23 09:08:08;;;;;;;23.70;3.65;;;;;;;;;;6340179;22;20013;-93
2023/05/23 09:10:39;;;;;;;17.73;3.35;;;;;;;;;;6315482;22;20012;-93
2023/05/23 09:13:11;;;;;;;15.18;3.88;;;;;;;;;;6316072;22;20432;-95
2023/05/23 09:15:38;;;;;;;14.30;3.97;;;;;;;;;;6314086;22;20092;-94
2023/05/23 09:18:04;;;;;;;22.10;3.50;;;;;;;;;;6316699;22;20034;-94
2023/05/23 09:20:31;;;;;;;15.90;3.45;;;;;;;;;;6315815;22;20003;-95
2023/05/23 09:23:00;;;;;;;14.15;3.40;;;;;;;;;;6342959;22;20009;-95
2023/05/23 09:25:26;;;;;;;14.90;3.30;;;;;;;;;;6321552;22;20029;-94
2023/05/23 09:28:12;;;;;;;17.88;3.25;;;;;;;;;;6318820;22;20024;-95
2023/05/23 09:30:46;;;;;;;13.18;3.58;;;;;;;;;;6347114;22;20089;-93
2023/05/23 09:33:15;;;;;;;22.08;3.47;;;;;;;;;;6316504;22;20058;-95
2023/05/23 09:35:48;;;;;;;16.92;3.40;;;;;;;;;;6314985;22;20475;-95
2023/05/23 09:38:14;;;;;;;10.88;2.63;;;;;;;;;;6349399;22;20602;-95
2023/05/23 09:41:05;;;;;;;19.70;3.67;;;;;;;;;;6347599;22;20018;-94
2023/05/23 09:43:35;;;;;;;12.57;3.38;;;;;;;;;;6344661;22;20009;-94
2023/05/23 09:48:59;;;;;;;18.35;3.67;;;;;;;;;;6342070;22;20010;-93
2023/05/23 09:51:33;;;;;;;14.50;3.25;;;;;;;;;;6322435;22;20066;-94
2023/05/23 09:54:06;;;;;;;16.05;3.15;;;;;;;;;;6344848;22;20130;-95
2023/05/23 09:56:42;;;;;;;10.63;3.13;;;;;;;;;;6315928;22;20325;-95
2023/05/23 09:59:13;;;;;;;17.33;5.38;;;;;;;;;;6345967;22;20010;-95
2023/05/23 10:01:52;;;;;;;;;;;;;;;;;;;;;
2023/05/23 10:04:22;;;;;;;16.25;3.42;;;;;;;;;;6304804;22;20086;-96
2023/05/23 10:06:58;;;;;;;14.73;3.00;;;;;;;;;;6256415;22;20015;-95
2023/05/23 10:09:51;;;;;;;;;;;;;;;;;;;;;
2023/05/23 10:12:36;;;;;;;15.48;3.42;;;;;;;;;;6303959;22;20082;-95
2023/05/23 10:15:04;;;;;;;17.83;3.13;;;;;;;;;;6282429;22;20258;-94
2023/05/23 10:17:40;;;;;;;13.80;2.70;;;;;;;;;;6279459;22;20396;-95
2023/05/23 10:20:16;;;;;;;10.77;2.45;;;;;;;;;;6289211;22;20050;-93
2023/05/23 10:22:42;;;;;;;;;;;;;;;;;;6281968;22;20353;-93
2023/05/23 10:25:09;;;;;;;12.68;3.38;;;;;;;;;;6285325;22;19899;-94
2023/05/23 10:27:43;;;;;;;16.20;3.88;;;;;;;;;;6307214;22;20141;-94
2023/05/23 10:30:09;;;;;;;15.50;2.85;;;;;;;;;;6263688;22;20011;-93
2023/05/23 10:32:39;;;;;;;13.70;3.55;;;;;;;;;;6258115;22;20500;-94
2023/05/23 10:35:29;;;;;;;16.05;3.53;;;;;;;;;;6291387;22;20559;-94
2023/05/23 10:38:16;;;;;;;11.98;2.75;;;;;;;;;;6297553;22;20359;-93
2023/05/23 10:40:42;;;;;;;15.48;3.50;;;;;;;;;;6267133;22;20083;-94
2023/05/23 10:43:14;;;;;;;22.52;3.90;;;;;;;;;;6292070;22;20086;-94
2023/05/23 10:49:03;;;;;;;12.05;2.97;;;;;;;;;;6288512;22;20011;-95
2023/05/23 10:55:16;;;;;;;;;;;;;;;;;;;;;
2023/05/23 10:57:47;;;;;;;24.20;4.40;;;;;;;;;;6185159;23;20063;-95
2023/05/23 11:00:24;;;;;;;10.48;2.85;;;;;;;;;;6283134;22;20033;-96
2023/05/23 11:03:13;;;;;;;16.65;3.30;;;;;;;;;;6310171;22;20074;-95
2023/05/23 11:05:50;;;;;;;13.10;3.17;;;;;;;;;;6264307;22;20007;-94
2023/05/23 11:08:53;;;;;;;19.17;2.78;;;;;;;;;;6315602;22;20018;-95
2023/05/23 11:11:22;;;;;;;15.25;2.88;;;;;;;;;;6348392;22;20029;-95
2023/05/23 11:14:01;;;;;;;13.88;3.42;;;;;;;;;;6317470;22;20007;-95
2023/05/23 11:16:42;;;;;;;15.93;3.22;;;;;;;;;;6348365;22;20029;-94
2023/05/23 11:19:21;;;;;;;11.93;3.15;;;;;;;;;;6350902;22;20007;-95
2023/05/23 11:21:55;;;;;;;13.30;3.55;;;;;;;;;;6342727;22;20006;-96
2023/05/23 11:24:21;;;;;;;19.75;3.55;;;;;;;;;;6317966;22;20011;-95
2023/05/23 11:27:02;;;;;;;12.75;3.10;;;;;;;;;;6316592;22;20013;-95
2023/05/23 11:29:28;;;;;;;14.35;3.20;;;;;;;;;;6344082;22;20109;-94
2023/05/23 11:31:55;;;;;;;18.25;3.53;;;;;;;;;;6343010;22;20427;-94
2023/05/23 11:34:35;;;;;;;17.33;4.05;;;;;;;;;;6346322;22;20408;-95
2023/05/23 11:37:04;;;;;;;16.00;3.42;;;;;;;;;;6314671;22;20006;-94
2023/05/23 11:39:37;;;;;;;15.95;3.97;;;;;;;;;;6347228;22;20452;-95
2023/05/23 11:42:07;;;;;;;17.92;4.95;;;;;;;;;;6321352;22;20412;-96
2023/05/23 11:44:40;;;;;;;12.82;3.45;;;;;;;;;;6345717;22;19998;-96
2023/05/23 11:47:22;;;;;;;14.90;2.97;;;;;;;;;;6321716;22;20013;-94
2023/05/23 11:49:48;;;;;;;20.90;3.00;;;;;;;;;;6345010;22;20010;-95
2023/05/23 11:52:15;;;;;;;6.63;2.55;;;;;;;;;;6315130;22;20434;-96
2023/05/23 11:54:50;;;;;;;16.25;3.03;;;;;;;;;;6341375;22;20494;-95
2023/05/23 11:57:17;;;;;;;13.88;3.15;;;;;;;;;;6348785;22;20017;-96
2023/05/23 11:59:44;;;;;;;12.52;3.28;;;;;;;;;;6320947;22;20014;-96
2023/05/23 12:02:21;;;;;;;21.02;2.90;;;;;;;;;;6313807;22;20010;-95
2023/05/23 12:05:01;;;;;;;;;;;;;;;;;;;;;
2023/05/23 12:07:37;;;;;;;10.25;2.38;;;;;;;;;;6374538;22;20033;-96
2023/05/23 12:10:10;;;;;;;15.15;3.55;;;;;;;;;;6323783;22;20006;-96
2023/05/23 12:12:37;;;;;;;16.50;3.80;;;;;;;;;;6344709;22;20090;-95
2023/05/23 12:15:14;;;;;;;17.67;3.17;;;;;;;;;;6347398;22;20014;-95
2023/05/23 12:17:45;;;;;;;13.32;3.97;;;;;;;;;;6340032;22;20432;-95
2023/05/23 12:20:15;;;;;;;15.95;2.53;;;;;;;;;;6350230;22;19998;-94
2023/05/23 12:22:48;;;;;;;10.20;3.00;;;;;;;;;;6324813;22;20003;-95
2023/05/23 12:25:15;;;;;;;15.40;2.80;;;;;;;;;;6349107;22;20030;-95
2023/05/23 12:27:44;;;;;;;9.73;2.95;;;;;;;;;;6347086;22;20441;-95
2023/05/23 12:30:17;;;;;;;25.45;7.78;;;;;;;;;;6315315;22;20093;-93
2023/05/23 12:32:46;;;;;;;13.43;3.30;;;;;;;;;;6341320;22;20066;-96
2023/05/23 12:35:17;;;;;;;14.70;3.42;;;;;;;;;;6339207;22;20421;-95
2023/05/23 12:37:47;;;;;;;12.80;4.07;;;;;;;;;;6348011;22;20004;-95
2023/05/23 12:40:17;;;;;;;11.30;2.78;;;;;;;;;;6342052;22;20494;-96
2023/05/23 12:42:53;;;;;;;20.38;2.88;;;;;;;;;;6340812;22;20109;-96
2023/05/23 12:48:46;;;;;;;28.15;4.18;;;;;;;;;;6270189;22;20003;-95
2023/05/23 12:51:15;;;;;;;11.27;2.80;;;;;;;;;;6276264;22;20345;-96
2023/05/23 12:54:05;;;;;;;17.25;2.67;;;;;;;;;;6320050;22;20065;-96
2023/05/23 12:56:31;;;;;;;8.95;2.42;;;;;;;;;;6314578;22;20022;-95
2023/05/23 12:59:07;;;;;;;;;;;;;;;;;;;;;
2023/05/23 13:01:34;;;;;;;15.32;2.92;;;;;;;;;;6343451;22;20062;-95
2023/05/23 13:04:05;;;;;;;16.60;3.90;;;;;;;;;;6342158;22;20435;-96
2023/05/23 13:06:52;;;;;;;10.13;2.70;;;;;;;;;;6341399;22;20002;-96
2023/05/23 13:09:36;;;;;;;16.90;2.90;;;;;;;;;;6318904;22;20010;-96
2023/05/23 13:12:06;;;;;;;14.52;2.70;;;;;;;;;;6340018;22;20013;-95
2023/05/23 13:14:35;;;;;;;12.60;2.92;;;;;;;;;;6342520;22;20544;-94
2023/05/23 13:17:02;;;;;;;13.30;3.03;;;;;;;;;;6342750;22;20006;-96
2023/05/23 13:22:26;;;;;;;12.15;2.90;;;;;;;;;;6308501;22;20006;-95
2023/05/23 13:24:52;;;;;;;12.88;2.55;;;;;;;;;;6343351;22;20008;-95
2023/05/23 13:27:22;;;;;;;11.07;3.25;;;;;;;;;;6342521;22;20013;-93
2023/05/23 13:29:59;;;;;;;13.13;2.60;;;;;;;;;;6345448;22;20010;-94
2023/05/23 13:32:26;;;;;;;13.45;3.05;;;;;;;;;;6339909;22;20006;-93
2023/05/23 13:35:02;;;;;;;9.30;3.13;;;;;;;;;;6316440;22;20109;-94
2023/05/23 13:37:34;;;;;;;11.07;2.83;;;;;;;;;;6315089;22;20093;-94
2023/05/23 13:40:19;;;;;;;12.98;3.35;;;;;;;;;;6318127;22;20067;-95
2023/05/23 13:42:51;;;;;;;16.48;3.55;;;;;;;;;;6344104;22;19979;-94
2023/05/23 13:45:38;;;;;;;;;;;;;;;;;;;;;
2023/05/23 13:48:39;;;;;;;;;;;;;;;;;;;;;
2023/05/23 13:50:58;;;;;;;12.60;3.08;;;;;;;;;;6342666;22;20040;-94
2023/05/23 13:53:52;;;;;;;12.13;4.05;;;;;;;;;;6338089;22;20034;-96
2023/05/23 13:56:23;;;;;;;10.90;3.33;;;;;;;;;;6322677;22;20017;-94
2023/05/23 14:05:08;;;;;;;15.38;3.35;;;;;;;;;;6371551;22;20050;-96
2023/05/23 14:08:26;;;;;;;11.27;2.65;;;;;;;;;;6312121;22;20015;-95
2023/05/23 14:10:57;;;;;;;;;;;;;;;;;;;;;
2023/05/23 14:13:27;;;;;;;11.55;2.72;;;;;;;;;;6345600;22;20054;-95
2023/05/23 14:15:57;;;;;;;10.98;2.47;;;;;;;;;;6340204;22;20034;-95
2023/05/23 14:18:31;;;;;;;8.70;3.28;;;;;;;;;;6341761;22;20521;-96
2023/05/23 14:21:38;;;;;;;12.23;2.95;;;;;;;;;;6315554;22;20222;-95
2023/05/23 14:24:30;;;;;;;12.85;2.88;;;;;;;;;;6341275;22;20017;-96
2023/05/23 14:27:16;;;;;;;13.00;3.63;;;;;;;;;;6294683;22;20451;-96
2023/05/23 14:32:37;;;;;;;12.17;2.90;;;;;;;;;;6354527;22;20025;-94
2023/05/23 14:35:31;;;;;;;20.67;3.00;;;;;;;;;;6340434;22;20010;-96
2023/05/23 14:59:31;;;;;;;9.75;3.05;;;;;;;;;;6365924;22;20097;-93
2023/05/23 15:02:00;;;;;;;16.80;2.83;;;;;;;;;;6350135;22;20010;-92
2023/05/23 15:04:27;;;;;;;29.30;3.83;;;;;;;;;;6353485;22;20016;-93
2023/05/23 15:06:53;;;;;;;12.88;2.83;;;;;;;;;;6331585;22;20002;-95
2023/05/23 15:09:22;;;;;;;8.55;2.78;;;;;;;;;;6332423;22;20018;-94
2023/05/23 15:11:49;;;;;;;18.23;3.00;;;;;;;;;;6358450;22;20006;-95
2023/05/23 15:14:21;;;;;;;19.98;2.83;;;;;;;;;;6336469;22;20420;-95
2023/05/23 15:16:49;;;;;;;19.63;3.65;;;;;;;;;;6354011;22;20010;-94
2023/05/23 15:19:16;;;;;;;13.75;2.95;;;;;;;;;;6327721;22;20006;-94
2023/05/23 15:21:42;;;;;;;15.98;3.00;;;;;;;;;;6353506;22;20002;-95
2023/05/23 15:24:08;;;;;;;15.65;2.75;;;;;;;;;;6353512;22;20032;-95
2023/05/23 15:26:45;;;;;;;19.60;2.58;;;;;;;;;;6352582;22;20006;-94
2023/05/23 15:29:16;;;;;;;11.15;2.45;;;;;;;;;;6353095;22;20002;-95
2023/05/23 15:31:43;;;;;;;14.23;2.95;;;;;;;;;;6324534;22;20010;-94
2023/05/23 15:34:30;;;;;;;11.20;2.72;;;;;;;;;;6322030;22;20094;-93
2023/05/23 15:36:55;;;;;;;;;;;;;;;;;;6343741;22;20081;-95
2023/05/23 15:39:22;;;;;;;10.05;2.70;;;;;;;;;;6346498;22;19909;-93
2023/05/23 15:41:48;;;;;;;14.70;2.90;;;;;;;;;;6320072;22;20048;-94
2023/05/23 15:44:19;;;;;;;13.98;2.75;;;;;;;;;;6345795;22;20002;-95
2023/05/23 15:46:46;;;;;;;15.02;2.83;;;;;;;;;;6344704;22;20096;-94
2023/05/23 15:49:18;;;;;;;13.77;3.03;;;;;;;;;;6321364;22;20432;-95
2023/05/23 15:51:45;;;;;;;12.02;2.85;;;;;;;;;;6347384;22;20034;-95